Time;durP1;ratioP1;P1;durP2;ratioP2;P2;SDS_P1;SDS_P2;PMS_P1;PMS_P2;Temp;Humidity;BMP_temperature;BMP_pressure;BME280_temperature;BME280_humidity;BME280_pressure;Samples;Min_cycle;Max_cycle;Signal;HPM_P1;HPM_P2
2023/07/15 00:01:25;;;;;;;4.47;3.35;;;19.90;99.90;;;;;;4955759;28;20035;-75
2023/07/15 00:03:54;;;;;;;7.57;3.85;;;20.60;99.90;;;;;;4956614;28;20098;-75
2023/07/15 00:06:21;;;;;;;5.43;3.80;;;20.70;99.90;;;;;;4956478;28;20039;-75
2023/07/15 00:08:47;;;;;;;4.70;3.92;;;20.60;99.90;;;;;;4955747;28;20454;-74
2023/07/15 00:11:29;;;;;;;4.57;3.42;;;20.50;99.90;;;;;;4955236;28;20501;-75
2023/07/15 00:13:59;;;;;;;4.75;3.60;;;20.40;99.90;;;;;;4956305;28;20452;-75
2023/07/15 00:16:26;;;;;;;7.68;3.20;;;20.50;99.90;;;;;;4956088;28;20043;-75
2023/07/15 00:18:52;;;;;;;6.28;3.53;;;20.70;99.90;;;;;;4956241;28;20054;-76
2023/07/15 00:21:22;;;;;;;5.72;3.42;;;20.50;99.90;;;;;;4955000;28;20039;-75
2023/07/15 00:23:55;;;;;;;6.78;3.33;;;21.40;99.90;;;;;;4955885;28;20113;-75
2023/07/15 00:26:22;;;;;;;7.95;3.13;;;20.90;99.90;;;;;;4940012;29;20077;-75
2023/07/15 00:28:50;;;;;;;4.18;3.42;;;21.00;99.90;;;;;;4955689;28;20484;-74
2023/07/15 00:31:19;;;;;;;5.75;3.42;;;18.70;99.90;;;;;;4955585;28;20090;-75
2023/07/15 00:33:48;;;;;;;4.60;2.75;;;20.90;99.90;;;;;;4955986;28;20129;-75
2023/07/15 00:36:15;;;;;;;5.43;3.50;;;20.80;99.90;;;;;;4956154;28;20121;-75
2023/07/15 00:38:44;;;;;;;5.57;3.42;;;21.10;99.90;;;;;;4939838;29;20047;-74
2023/07/15 00:41:17;;;;;;;7.00;3.28;;;20.90;99.90;;;;;;4956389;28;20035;-75
2023/07/15 00:44:14;;;;;;;7.22;3.90;;;20.80;99.90;;;;;;4955732;28;20040;-74
2023/07/15 00:46:52;;;;;;;7.72;3.40;;;21.20;99.90;;;;;;4939793;29;20039;-74
2023/07/15 00:49:25;;;;;;;4.43;2.90;;;20.80;99.90;;;;;;4955740;29;20047;-76
2023/07/15 00:52:11;;;;;;;;;;;20.90;99.90;;;;;;4939674;29;20055;-75
2023/07/15 00:54:40;;;;;;;8.82;3.38;;;21.00;99.90;;;;;;4956312;28;19922;-75
2023/07/15 00:57:11;;;;;;;4.88;3.17;;;20.50;99.90;;;;;;4939940;29;20484;-77
2023/07/15 00:59:39;;;;;;;7.15;3.15;;;18.80;99.90;;;;;;4971583;28;20035;-75
2023/07/15 01:02:06;;;;;;;4.93;3.28;;;20.90;99.90;;;;;;4938581;29;20047;-75
2023/07/15 01:04:32;;;;;;;4.60;3.05;;;23.30;99.90;;;;;;4939653;29;20153;-75
2023/07/15 01:06:58;;;;;;;6.40;2.72;;;20.80;99.90;;;;;;4956560;28;20515;-76
2023/07/15 01:09:28;;;;;;;7.03;3.53;;;20.70;99.90;;;;;;4923379;29;20046;-75
2023/07/15 01:11:54;;;;;;;4.50;2.85;;;20.80;99.90;;;;;;4954446;28;20042;-74
2023/07/15 01:14:22;;;;;;;7.18;3.28;;;20.80;99.90;;;;;;4955050;29;20075;-74
2023/07/15 01:16:48;;;;;;;7.35;3.10;;;21.00;99.90;;;;;;4956281;28;20039;-74
2023/07/15 01:19:20;;;;;;;6.57;3.15;;;20.90;99.90;;;;;;4956166;28;20066;-75
2023/07/15 01:21:50;;;;;;;8.63;3.65;;;20.90;99.90;;;;;;4954369;28;20039;-74
2023/07/15 01:24:21;;;;;;;8.13;3.20;;;21.40;99.90;;;;;;4956425;28;20039;-75
2023/07/15 01:26:48;;;;;;;8.52;3.50;;;;;;;;;;4955268;28;20043;-75
2023/07/15 01:29:14;;;;;;;4.88;2.75;;;;;;;;;;4955003;28;20439;-75
2023/07/15 01:31:41;;;;;;;5.30;2.92;;;20.90;99.90;;;;;;4970327;28;20094;-75
2023/07/15 01:34:08;;;;;;;3.95;2.95;;;21.10;99.90;;;;;;4954757;28;20047;-75
2023/07/15 01:36:34;;;;;;;9.38;3.00;;;20.90;99.90;;;;;;4955268;28;20042;-75
2023/07/15 01:39:00;;;;;;;7.55;3.10;;;18.80;99.90;;;;;;4939062;29;20074;-75
2023/07/15 01:41:28;;;;;;;4.30;2.58;;;;;;;;;;4953840;28;20040;-75
2023/07/15 01:43:54;;;;;;;6.35;3.10;;;20.90;99.90;;;;;;4955614;28;20550;-75
2023/07/15 01:46:20;;;;;;;4.57;2.85;;;20.70;99.90;;;;;;4954437;28;20051;-75
2023/07/15 01:48:48;;;;;;;5.07;3.00;;;;;;;;;;4954439;28;20043;-75
2023/07/15 01:51:14;;;;;;;6.88;3.13;;;20.80;99.90;;;;;;4955054;28;20047;-75
2023/07/15 01:53:40;;;;;;;7.90;2.72;;;;;;;;;;4938333;29;20182;-74
2023/07/15 01:56:05;;;;;;;4.70;2.50;;;21.10;99.90;;;;;;4954224;28;20519;-75
2023/07/15 01:58:33;;;;;;;5.22;2.97;;;;;;;;;;4955702;28;20078;-75
2023/07/15 02:00:58;;;;;;;4.43;2.70;;;21.10;99.90;;;;;;4954719;28;20174;-76
2023/07/15 02:03:24;;;;;;;4.55;2.72;;;;;;;;;;4955223;28;20633;-78
2023/07/15 02:05:51;;;;;;;3.78;2.42;;;21.20;99.90;;;;;;4955369;29;20039;-75
2023/07/15 02:08:18;;;;;;;6.07;2.70;;;21.20;99.90;;;;;;4954198;29;20074;-75
2023/07/15 02:10:47;;;;;;;5.88;2.70;;;21.20;99.90;;;;;;4954449;28;20503;-75
2023/07/15 02:13:13;;;;;;;5.53;2.55;;;21.20;99.90;;;;;;4955346;28;20043;-75
2023/07/15 02:15:39;;;;;;;3.75;2.90;;;21.10;99.90;;;;;;4937912;29;20101;-75
2023/07/15 02:18:05;;;;;;;4.05;2.42;;;;;;;;;;4954992;28;20042;-75
2023/07/15 02:20:31;;;;;;;6.00;2.50;;;21.20;99.90;;;;;;4952908;28;20563;-74
2023/07/15 02:22:57;;;;;;;4.70;2.50;;;;;;;;;;4955223;28;20047;-75
2023/07/15 02:25:24;;;;;;;5.03;2.70;;;;;;;;;;4955151;28;20043;-75
2023/07/15 02:27:49;;;;;;;4.28;2.33;;;21.40;99.90;;;;;;4953457;28;20045;-76
2023/07/15 02:30:19;;;;;;;4.70;2.80;;;21.50;99.90;;;;;;4952836;28;20039;-74
2023/07/15 02:32:45;;;;;;;6.45;2.60;;;21.30;99.90;;;;;;4953411;28;20074;-75
2023/07/15 02:35:13;;;;;;;7.88;2.58;;;21.30;99.90;;;;;;4954670;28;20043;-75
2023/07/15 02:37:48;;;;;;;4.47;2.55;;;21.20;99.90;;;;;;4953925;28;20074;-75
2023/07/15 02:40:15;;;;;;;4.00;2.50;;;;;;;;;;4953256;28;20047;-76
2023/07/15 02:42:41;;;;;;;6.55;2.42;;;21.60;99.90;;;;;;4954604;28;20083;-75
2023/07/15 02:45:10;;;;;;;5.50;2.72;;;21.50;99.90;;;;;;4937554;28;20058;-75
2023/07/15 02:47:39;;;;;;;5.25;2.60;;;21.40;99.90;;;;;;4955149;28;20032;-75
2023/07/15 02:50:07;;;;;;;8.95;2.40;;;21.30;99.90;;;;;;4954188;28;20043;-75
2023/07/15 02:52:35;;;;;;;4.15;2.80;;;21.70;99.90;;;;;;4954682;28;20403;-75
2023/07/15 02:55:08;;;;;;;5.60;2.42;;;20.60;99.90;;;;;;4953144;28;20155;-75
2023/07/15 02:57:34;;;;;;;4.93;2.40;;;21.20;99.90;;;;;;4954366;28;20056;-75
2023/07/15 03:00:01;;;;;;;4.65;2.25;;;21.30;99.90;;;;;;4936762;28;20122;-75
2023/07/15 03:02:30;;;;;;;4.82;2.33;;;;;;;;;;4953268;28;20035;-75
2023/07/15 03:04:56;;;;;;;10.35;2.70;;;21.40;99.90;;;;;;4954410;28;20063;-75
2023/07/15 03:07:22;;;;;;;6.22;2.25;;;;;;;;;;4956368;28;20047;-75
2023/07/15 03:09:48;;;;;;;3.88;2.47;;;21.40;99.90;;;;;;4952902;28;20044;-75
2023/07/15 03:12:14;;;;;;;8.18;2.90;;;;;;;;;;4953925;28;20101;-75
2023/07/15 03:14:42;;;;;;;5.78;2.42;;;21.30;99.90;;;;;;4953111;28;20046;-76
2023/07/15 03:17:09;;;;;;;6.03;2.97;;;21.40;99.90;;;;;;4936963;29;20138;-75
2023/07/15 03:19:34;;;;;;;5.15;2.47;;;21.40;99.90;;;;;;4954206;28;20047;-76
2023/07/15 03:22:03;;;;;;;4.28;2.40;;;21.10;99.90;;;;;;4953583;28;20125;-75
2023/07/15 03:24:30;;;;;;;4.43;2.25;;;;;;;;;;4954256;28;20126;-75
2023/07/15 03:26:56;;;;;;;4.93;2.25;;;21.20;99.90;;;;;;4952877;28;20444;-75
2023/07/15 03:29:23;;;;;;;5.47;2.72;;;;;;;;;;4954381;28;20050;-76
2023/07/15 03:31:49;;;;;;;6.97;2.72;;;21.00;99.90;;;;;;4953601;28;20114;-75
2023/07/15 03:34:15;;;;;;;6.32;2.63;;;21.80;99.90;;;;;;4957366;28;20326;-75
2023/07/15 03:36:41;;;;;;;5.22;2.67;;;21.00;99.90;;;;;;4958123;28;20060;-75
2023/07/15 03:39:07;;;;;;;6.63;2.53;;;;;;;;;;4958223;28;20480;-75
2023/07/15 03:41:35;;;;;;;4.57;2.35;;;20.80;99.90;;;;;;4957360;28;20118;-75
2023/07/15 03:44:03;;;;;;;5.70;2.67;;;20.80;99.90;;;;;;4957124;28;20101;-75
2023/07/15 03:46:34;;;;;;;5.35;2.47;;;21.60;99.90;;;;;;4957232;28;20051;-75
2023/07/15 03:48:59;;;;;;;6.25;2.85;;;21.00;99.90;;;;;;4956852;28;20323;-75
2023/07/15 03:51:25;;;;;;;5.20;2.40;;;;;;;;;;4956082;28;20035;-75
2023/07/15 03:53:51;;;;;;;7.30;2.63;;;20.70;99.90;;;;;;4956407;28;20050;-75
2023/07/15 03:56:17;;;;;;;4.47;2.70;;;20.80;99.90;;;;;;4956571;28;20051;-75
2023/07/15 03:58:43;;;;;;;9.63;3.00;;;20.50;99.90;;;;;;4957945;28;20040;-75
2023/07/15 04:01:09;;;;;;;4.72;2.42;;;;;;;;;;4955553;28;20035;-75
2023/07/15 04:03:35;;;;;;;4.47;2.33;;;;;;;;;;4956399;28;20082;-75
2023/07/15 04:06:01;;;;;;;5.18;2.65;;;20.50;99.90;;;;;;4955863;28;20047;-75
2023/07/15 04:08:27;;;;;;;5.45;2.22;;;;;;;;;;4956503;28;20054;-75
2023/07/15 04:10:53;;;;;;;4.50;2.67;;;20.60;99.90;;;;;;4957111;28;20055;-75
2023/07/15 04:13:19;;;;;;;5.10;2.88;;;;;;;;;;4956680;28;20047;-76
2023/07/15 04:15:45;;;;;;;6.45;2.70;;;20.50;99.90;;;;;;4956442;28;20058;-75
2023/07/15 04:18:13;;;;;;;4.22;2.40;;;20.50;99.90;;;;;;4955756;28;20587;-75
2023/07/15 04:20:39;;;;;;;6.25;2.63;;;20.50;99.90;;;;;;4955294;28;20122;-76
2023/07/15 04:23:08;;;;;;;8.73;3.17;;;20.70;99.90;;;;;;4940139;28;20802;-75
2023/07/15 04:25:34;;;;;;;7.63;3.05;;;19.00;99.90;;;;;;4957478;28;20051;-75
2023/07/15 04:28:00;;;;;;;7.82;2.78;;;20.50;99.90;;;;;;4955825;28;20047;-75
2023/07/15 04:30:26;;;;;;;11.25;3.22;;;;;;;;;;4955836;28;20045;-75
2023/07/15 04:32:52;;;;;;;7.40;3.15;;;20.70;99.90;;;;;;4957184;28;20108;-77
2023/07/15 04:35:18;;;;;;;7.53;2.97;;;;;;;;;;4956334;28;20535;-75
2023/07/15 04:37:44;;;;;;;7.95;2.95;;;20.60;99.90;;;;;;4956022;28;20046;-75
2023/07/15 04:40:12;;;;;;;5.00;2.70;;;20.50;99.90;;;;;;4956516;28;20500;-75
2023/07/15 04:42:38;;;;;;;5.35;2.50;;;20.50;99.90;;;;;;4956778;28;20063;-75
2023/07/15 04:45:04;;;;;;;4.47;2.50;;;20.60;99.90;;;;;;4955185;28;20491;-75
2023/07/15 04:47:30;;;;;;;8.40;2.88;;;20.50;99.90;;;;;;4955099;28;20043;-75
2023/07/15 04:49:56;;;;;;;6.85;2.75;;;;;;;;;;4954491;28;20043;-75
2023/07/15 04:52:22;;;;;;;9.20;3.08;;;20.60;99.90;;;;;;4955212;28;20058;-75
2023/07/15 04:54:51;;;;;;;6.18;2.67;;;;;;;;;;4955859;28;20047;-75
2023/07/15 04:57:20;;;;;;;6.93;3.10;;;20.60;99.90;;;;;;4955389;28;20138;-75
2023/07/15 04:59:46;;;;;;;6.03;2.75;;;;;;;;;;4955330;28;20043;-75
2023/07/15 05:02:12;;;;;;;6.10;2.80;;;20.60;99.90;;;;;;4955491;28;20495;-75
2023/07/15 05:04:38;;;;;;;6.13;2.55;;;;;;;;;;4955605;28;20134;-75
2023/07/15 05:07:04;;;;;;;3.78;2.50;;;;;;;;;;4971312;28;20047;-75
2023/07/15 05:09:31;;;;;;;6.93;3.10;;;20.70;99.90;;;;;;4956543;28;20126;-75
2023/07/15 05:12:00;;;;;;;8.30;2.60;;;20.80;99.90;;;;;;4954704;28;20047;-75
2023/07/15 05:14:30;;;;;;;5.00;3.20;;;21.10;99.90;;;;;;4939147;29;20074;-75
2023/07/15 05:16:58;;;;;;;4.55;2.85;;;;;;;;;;4954996;28;20094;-76
2023/07/15 05:19:26;;;;;;;4.50;2.90;;;20.90;99.90;;;;;;4954841;28;20070;-75
2023/07/15 05:21:53;;;;;;;4.63;3.28;;;;;;;;;;4955029;28;20082;-75
2023/07/15 05:24:18;;;;;;;5.30;2.83;;;20.90;99.90;;;;;;4954694;28;20094;-75
2023/07/15 05:26:44;;;;;;;5.53;3.03;;;;;;;;;;4954746;28;20071;-75
2023/07/15 05:29:10;;;;;;;5.65;2.63;;;21.10;99.90;;;;;;4955220;28;20046;-77
2023/07/15 05:31:39;;;;;;;7.43;2.90;;;;;;;;;;4955202;28;20043;-75
2023/07/15 05:34:05;;;;;;;5.95;2.65;;;21.10;99.90;;;;;;4956475;28;20072;-75
2023/07/15 05:36:30;;;;;;;6.30;2.50;;;21.20;99.90;;;;;;4954604;28;20513;-75
2023/07/15 05:38:56;;;;;;;11.07;2.95;;;21.30;99.90;;;;;;4956109;28;20459;-75
2023/07/15 05:41:22;;;;;;;5.38;3.05;;;;;;;;;;4955468;28;20570;-75
2023/07/15 05:43:48;;;;;;;5.20;3.00;;;;;;;;;;4956254;28;20070;-71
2023/07/15 05:46:14;;;;;;;4.18;2.53;;;21.60;99.90;;;;;;4955088;28;20043;-71
2023/07/15 05:48:40;;;;;;;5.82;2.83;;;;;;;;;;4956844;28;20051;-71
2023/07/15 05:51:07;;;;;;;5.75;2.63;;;21.60;99.90;;;;;;4956649;28;20550;-71
2023/07/15 05:53:33;;;;;;;5.13;3.13;;;22.50;99.90;;;;;;4955818;28;20527;-71
2023/07/15 05:55:59;;;;;;;3.65;2.45;;;;;;;;;;4938153;29;20047;-71
2023/07/15 05:58:26;;;;;;;4.65;2.90;;;21.50;99.90;;;;;;4956477;28;20585;-71
2023/07/15 06:00:54;;;;;;;3.33;2.45;;;21.80;99.90;;;;;;4953990;28;20451;-71
2023/07/15 06:03:20;;;;;;;7.80;3.15;;;21.50;99.90;;;;;;4954379;29;20114;-71
2023/07/15 06:05:46;;;;;;;4.50;2.75;;;21.80;99.90;;;;;;4939050;29;20530;-71
2023/07/15 06:08:15;;;;;;;6.55;3.00;;;21.70;99.90;;;;;;4954406;28;20032;-71
2023/07/15 06:10:42;;;;;;;6.63;3.33;;;22.10;99.90;;;;;;4953892;28;20150;-71
2023/07/15 06:13:11;;;;;;;3.40;2.70;;;21.90;99.90;;;;;;4955617;28;20122;-71
2023/07/15 06:15:38;;;;;;;4.43;2.80;;;22.20;99.90;;;;;;4954417;28;20047;-71
2023/07/15 06:18:04;;;;;;;3.38;2.63;;;22.30;99.90;;;;;;4955720;28;20053;-71
2023/07/15 06:20:30;;;;;;;5.55;3.20;;;22.00;99.90;;;;;;4953790;28;20043;-71
2023/07/15 06:22:56;;;;;;;7.15;2.70;;;23.20;99.90;;;;;;4953997;28;20049;-71
2023/07/15 06:25:22;;;;;;;6.07;2.80;;;22.00;99.90;;;;;;4955446;28;20508;-71
2023/07/15 06:27:50;;;;;;;9.13;3.35;;;22.10;99.90;;;;;;4954346;28;20043;-71
2023/07/15 06:30:19;;;;;;;7.47;2.75;;;22.20;99.90;;;;;;4953520;28;20098;-71
2023/07/15 06:32:45;;;;;;;4.07;2.90;;;22.40;99.90;;;;;;4953586;28;20516;-71
2023/07/15 06:35:13;;;;;;;4.20;2.78;;;22.20;99.90;;;;;;4955569;28;20066;-73
2023/07/15 06:37:39;;;;;;;4.80;2.90;;;22.40;99.90;;;;;;4938400;29;20039;-71
2023/07/15 06:40:06;;;;;;;4.50;3.28;;;22.60;99.90;;;;;;4955020;28;20043;-71
2023/07/15 06:42:31;;;;;;;7.10;3.03;;;22.30;99.90;;;;;;4955297;28;20373;-72
2023/07/15 06:45:01;;;;;;;6.25;2.85;;;22.50;99.90;;;;;;4954918;28;20484;-72
2023/07/15 06:47:26;;;;;;;4.97;2.50;;;22.60;99.90;;;;;;4954639;28;20078;-72
2023/07/15 06:49:52;;;;;;;4.28;2.80;;;22.60;99.90;;;;;;4953545;28;20072;-71
2023/07/15 06:52:18;;;;;;;6.38;2.67;;;22.70;99.90;;;;;;4954540;28;20043;-71
2023/07/15 06:54:44;;;;;;;7.13;3.05;;;23.70;99.90;;;;;;4953734;28;20466;-71
2023/07/15 06:57:10;;;;;;;7.53;3.15;;;23.90;99.90;;;;;;4937679;28;20051;-72
2023/07/15 06:59:41;;;;;;;7.20;3.30;;;22.90;99.90;;;;;;4938030;29;20047;-71
2023/07/15 07:02:06;;;;;;;9.75;4.00;;;22.90;99.90;;;;;;4953328;28;20134;-72
2023/07/15 07:04:32;;;;;;;4.55;3.10;;;23.00;99.90;;;;;;4953530;28;20082;-71
2023/07/15 07:06:58;;;;;;;6.03;2.60;;;;;;;;;;4953269;28;20047;-71
2023/07/15 07:09:24;;;;;;;4.97;2.85;;;23.30;99.90;;;;;;4953073;28;20046;-71
2023/07/15 07:11:50;;;;;;;5.45;3.15;;;23.10;99.90;;;;;;4954297;28;20051;-72
2023/07/15 07:14:16;;;;;;;9.80;2.88;;;23.20;99.90;;;;;;4953713;28;20415;-71
2023/07/15 07:16:42;;;;;;;8.15;2.72;;;23.20;99.90;;;;;;4953644;29;20039;-72
2023/07/15 07:19:08;;;;;;;6.85;2.45;;;23.40;99.90;;;;;;4953529;29;20523;-71
2023/07/15 07:21:34;;;;;;;6.70;2.65;;;23.20;99.90;;;;;;4936924;29;20040;-71
2023/07/15 07:24:00;;;;;;;5.05;2.40;;;23.70;99.90;;;;;;4954376;28;20085;-72
2023/07/15 07:26:26;;;;;;;5.50;2.55;;;23.60;99.90;;;;;;4958466;28;20039;-71
2023/07/15 07:28:51;;;;;;;4.72;2.47;;;22.70;99.90;;;;;;4939965;29;20495;-72
2023/07/15 07:31:18;;;;;;;5.10;2.53;;;23.70;99.90;;;;;;4952861;28;20054;-71
2023/07/15 07:33:47;;;;;;;3.63;2.10;;;24.20;99.90;;;;;;4954758;28;20047;-71
2023/07/15 07:36:13;;;;;;;6.65;2.38;;;24.10;99.90;;;;;;4953482;28;20047;-71
2023/07/15 07:38:38;;;;;;;3.67;2.22;;;23.90;99.90;;;;;;4954591;28;20106;-71
2023/07/15 07:41:08;;;;;;;7.40;2.30;;;24.10;99.90;;;;;;4952274;28;20052;-71
2023/07/15 07:43:36;;;;;;;4.82;2.35;;;24.00;99.90;;;;;;4955086;28;20070;-71
2023/07/15 07:46:05;;;;;;;3.88;1.90;;;24.20;99.90;;;;;;4954510;28;20039;-72
2023/07/15 07:48:32;;;;;;;3.28;1.77;;;24.30;99.90;;;;;;4953321;28;20082;-72
2023/07/15 07:50:59;;;;;;;6.65;2.00;;;24.40;99.90;;;;;;4953646;28;20085;-73
2023/07/15 07:53:28;;;;;;;2.10;1.60;;;24.50;99.90;;;;;;4921667;28;20059;-72
2023/07/15 07:55:54;;;;;;;5.40;1.83;;;24.60;99.90;;;;;;4954474;29;20031;-72
2023/07/15 07:58:20;;;;;;;5.03;2.08;;;24.50;99.90;;;;;;4952875;28;20039;-72
2023/07/15 08:00:46;;;;;;;3.67;1.52;;;24.40;99.90;;;;;;4952106;28;20043;-72
2023/07/15 08:03:14;;;;;;;3.88;1.40;;;24.40;99.90;;;;;;4953570;29;20066;-72
2023/07/15 08:05:44;;;;;;;5.40;1.70;;;24.10;99.90;;;;;;4953758;28;20042;-72
2023/07/15 08:08:11;;;;;;;3.60;1.73;;;23.90;99.90;;;;;;4952656;28;20051;-71
2023/07/15 08:10:38;;;;;;;3.75;1.58;;;24.40;99.90;;;;;;4936224;29;20051;-71
2023/07/15 08:13:05;;;;;;;2.13;1.48;;;24.30;99.90;;;;;;4952715;28;20039;-71
2023/07/15 08:15:39;;;;;;;4.57;1.88;;;24.10;99.90;;;;;;4952839;29;20043;-71
2023/07/15 08:18:06;;;;;;;2.67;1.23;;;24.40;99.90;;;;;;4938582;29;20118;-73
2023/07/15 08:20:33;;;;;;;3.25;1.75;;;24.40;99.90;;;;;;4955701;28;20043;-71
2023/07/15 08:22:59;;;;;;;2.60;1.25;;;24.00;99.90;;;;;;4956324;28;20187;-72
2023/07/15 08:25:25;;;;;;;3.22;1.52;;;24.20;99.90;;;;;;4956255;28;20031;-73
2023/07/15 08:27:54;;;;;;;2.10;1.50;;;23.90;99.90;;;;;;4957342;28;20114;-72
2023/07/15 08:30:20;;;;;;;3.25;1.40;;;22.70;99.90;;;;;;4955372;28;20078;-72
2023/07/15 08:32:46;;;;;;;2.25;1.40;;;23.80;99.90;;;;;;4957361;28;20061;-72
2023/07/15 08:35:12;;;;;;;3.92;1.27;;;26.40;99.90;;;;;;4957607;28;20042;-71
2023/07/15 08:37:40;;;;;;;3.78;1.30;;;23.90;99.90;;;;;;4957394;28;20043;-72
2023/07/15 08:40:08;;;;;;;3.40;1.20;;;24.30;99.90;;;;;;4955625;28;20382;-71
2023/07/15 08:42:35;;;;;;;2.10;1.40;;;24.40;99.90;;;;;;4939916;29;20043;-71
2023/07/15 08:45:02;;;;;;;2.17;1.20;;;24.60;99.90;;;;;;4957079;28;20122;-71
2023/07/15 08:47:29;;;;;;;2.15;1.10;;;24.50;99.90;;;;;;4957360;28;20550;-71
2023/07/15 08:50:05;;;;;;;4.20;1.90;;;24.80;99.90;;;;;;4956118;28;20118;-72
2023/07/15 08:52:31;;;;;;;2.13;1.25;;;24.50;99.90;;;;;;4956057;28;20156;-72
2023/07/15 08:55:00;;;;;;;3.40;1.30;;;24.50;99.90;;;;;;4955416;28;20054;-71
2023/07/15 08:57:26;;;;;;;3.20;1.40;;;24.50;99.90;;;;;;4955471;28;20522;-72
2023/07/15 08:59:56;;;;;;;5.05;1.40;;;24.20;99.90;;;;;;4938949;28;20051;-72
2023/07/15 09:02:22;;;;;;;3.05;1.67;;;24.30;99.90;;;;;;4954730;29;20050;-72
2023/07/15 09:04:48;;;;;;;3.97;1.50;;;24.10;99.90;;;;;;4956177;28;20058;-72
2023/07/15 09:07:14;;;;;;;2.72;1.42;;;26.30;99.90;;;;;;4956353;29;20054;-71
2023/07/15 09:09:43;;;;;;;2.15;1.70;;;24.40;99.90;;;;;;4956295;28;20039;-72
2023/07/15 09:12:13;;;;;;;3.47;1.30;;;24.30;99.90;;;;;;4954433;28;20047;-71
2023/07/15 09:14:46;;;;;;;3.47;1.48;;;24.60;99.90;;;;;;4957001;28;20050;-72
2023/07/15 09:17:21;;;;;;;2.50;1.75;;;24.70;99.90;;;;;;4957695;28;20074;-73
2023/07/15 09:19:48;;;;;;;2.67;1.20;;;24.90;99.90;;;;;;4956578;28;20060;-72
2023/07/15 09:22:18;;;;;;;2.08;1.30;;;24.70;99.90;;;;;;4956578;28;20043;-72
2023/07/15 09:24:46;;;;;;;3.17;1.63;;;25.50;99.90;;;;;;4957534;28;20142;-72
2023/07/15 09:27:12;;;;;;;3.70;1.25;;;24.90;99.90;;;;;;4940080;28;20051;-73
2023/07/15 09:29:39;;;;;;;4.40;2.20;;;25.10;99.90;;;;;;4939171;29;20403;-72
2023/07/15 09:32:08;;;;;;;1.55;1.30;;;25.20;99.90;;;;;;4955696;28;20122;-72
2023/07/15 09:34:40;;;;;;;3.13;1.40;;;25.30;99.90;;;;;;4957413;28;20043;-72
2023/07/15 09:37:06;;;;;;;2.30;1.08;;;25.30;99.90;;;;;;4956000;28;20070;-72
2023/07/15 09:39:32;;;;;;;2.65;1.35;;;25.70;99.90;;;;;;4955925;28;20047;-72
2023/07/15 09:42:05;;;;;;;1.40;1.20;;;25.10;99.90;;;;;;4939904;29;20126;-72
2023/07/15 09:44:43;;;;;;;1.60;0.98;;;25.50;99.90;;;;;;4956840;28;20496;-73
2023/07/15 09:47:12;;;;;;;3.15;1.10;;;25.50;99.90;;;;;;4956918;28;20496;-71
2023/07/15 09:49:44;;;;;;;5.15;1.45;;;25.50;99.90;;;;;;4955465;28;20507;-72
2023/07/15 09:52:16;;;;;;;1.70;1.20;;;25.20;99.90;;;;;;4954469;28;20133;-72
2023/07/15 09:54:45;;;;;;;3.25;1.20;;;25.80;99.90;;;;;;4940172;29;20035;-72
2023/07/15 09:57:19;;;;;;;2.70;1.10;;;25.20;99.90;;;;;;4956375;28;20079;-71
2023/07/15 09:59:56;;;;;;;3.63;1.48;;;25.90;99.90;;;;;;4956515;28;20047;-74
2023/07/15 10:02:46;;;;;;;2.95;1.50;;;26.00;99.90;;;;;;4955977;28;20043;-73
2023/07/15 10:05:14;;;;;;;4.28;2.05;;;26.00;99.90;;;;;;4956884;28;20106;-72
2023/07/15 10:07:43;;;;;;;3.67;1.23;;;26.40;99.90;;;;;;4955709;29;20047;-73
2023/07/15 10:10:09;;;;;;;4.13;1.40;;;26.00;99.90;;;;;;4954378;28;20071;-72
2023/07/15 10:12:36;;;;;;;2.03;1.10;;;25.80;99.90;;;;;;4956207;28;20050;-72
2023/07/15 10:15:03;;;;;;;3.80;1.63;;;26.00;99.90;;;;;;4955909;28;20047;-72
2023/07/15 10:17:36;;;;;;;2.58;1.30;;;26.70;99.90;;;;;;4939160;29;20447;-72
2023/07/15 10:20:05;;;;;;;2.83;1.75;;;26.30;99.90;;;;;;4954572;28;20503;-72
2023/07/15 10:22:35;;;;;;;2.28;1.45;;;26.10;99.90;;;;;;4955132;28;20043;-73
2023/07/15 10:25:04;;;;;;;2.88;1.15;;;26.30;99.90;;;;;;4954513;28;20062;-73
2023/07/15 10:27:32;;;;;;;3.55;1.40;;;26.00;99.90;;;;;;4955558;28;20503;-72
2023/07/15 10:30:27;;;;;;;3.00;1.20;;;25.90;99.90;;;;;;4953929;28;20050;-74
2023/07/15 10:33:07;;;;;;;2.83;1.50;;;26.20;99.90;;;;;;4938487;29;20043;-73
2023/07/15 10:35:42;;;;;;;1.83;1.40;;;26.70;99.90;;;;;;4955266;28;20039;-73
2023/07/15 10:38:31;;;;;;;4.35;1.73;;;26.30;99.90;;;;;;4955599;28;20039;-72
2023/07/15 10:41:10;;;;;;;2.92;1.30;;;26.00;99.90;;;;;;4953998;28;20114;-72
2023/07/15 10:43:38;;;;;;;8.23;1.60;;;26.50;99.90;;;;;;4938082;29;20039;-73
2023/07/15 10:46:09;;;;;;;2.15;1.30;;;26.50;99.90;;;;;;4953854;28;20503;-72
2023/07/15 10:48:36;;;;;;;2.63;1.67;;;26.20;99.90;;;;;;4938234;29;20110;-72
2023/07/15 10:51:08;;;;;;;4.93;2.03;;;26.00;99.90;;;;;;4953244;28;20533;-72
2023/07/15 10:53:34;;;;;;;1.85;1.10;;;25.90;99.90;;;;;;4955568;28;20102;-72
2023/07/15 10:56:06;;;;;;;1.85;1.33;;;26.00;99.90;;;;;;4938049;29;20051;-72
2023/07/15 10:58:36;;;;;;;6.18;1.42;;;25.50;99.90;;;;;;4955242;28;20074;-72
2023/07/15 11:01:06;;;;;;;1.42;1.23;;;25.40;99.90;;;;;;4979562;23;20502;-67
2023/07/15 11:03:35;;;;;;;2.35;1.50;;;25.40;99.90;;;;;;4974114;28;20117;-67
2023/07/15 11:06:02;;;;;;;2.75;1.83;;;25.60;99.90;;;;;;4955959;28;20047;-67
2023/07/15 11:08:29;;;;;;;3.15;1.15;;;25.60;99.90;;;;;;4973339;28;20071;-67
2023/07/15 11:11:03;;;;;;;3.55;1.55;;;25.50;99.90;;;;;;4955260;28;20046;-67
2023/07/15 11:13:29;;;;;;;6.88;1.83;;;25.60;99.90;;;;;;4973504;28;20035;-67
2023/07/15 11:15:56;;;;;;;4.75;1.90;;;25.60;99.90;;;;;;4955750;28;20042;-67
2023/07/15 11:18:23;;;;;;;3.45;1.60;;;25.40;99.90;;;;;;4956024;28;20053;-67
2023/07/15 11:20:51;;;;;;;2.55;1.88;;;25.70;99.90;;;;;;4972424;28;20507;-67
2023/07/15 11:23:17;;;;;;;2.10;1.40;;;25.90;99.90;;;;;;4955837;28;20056;-67
2023/07/15 11:25:44;;;;;;;3.75;1.58;;;25.80;99.90;;;;;;4940155;28;20376;-67
2023/07/15 11:28:10;;;;;;;3.80;1.35;;;26.40;99.90;;;;;;4956024;28;20551;-67
2023/07/15 11:30:37;;;;;;;3.38;1.42;;;25.60;99.90;;;;;;4955801;28;20070;-67
2023/07/15 11:33:04;;;;;;;2.90;1.35;;;25.80;99.90;;;;;;4956167;28;20065;-67
2023/07/15 11:35:31;;;;;;;2.13;1.20;;;25.80;99.90;;;;;;4955934;28;20043;-68
2023/07/15 11:37:57;;;;;;;2.50;1.42;;;25.90;99.90;;;;;;4956010;28;20042;-68
2023/07/15 11:40:22;;;;;;;2.88;1.20;;;26.00;99.90;;;;;;4972732;28;20050;-68
2023/07/15 11:42:49;;;;;;;5.75;1.63;;;25.90;99.90;;;;;;4973283;28;20077;-68
2023/07/15 11:45:15;;;;;;;1.83;1.30;;;25.80;99.90;;;;;;4965432;28;20070;-68
2023/07/15 11:47:43;;;;;;;2.97;1.45;;;25.50;99.90;;;;;;4977038;28;20121;-67
2023/07/15 11:50:15;;;;;;;3.17;1.30;;;25.90;99.90;;;;;;4953825;28;20435;-67
2023/07/15 11:52:44;;;;;;;3.83;1.35;;;26.20;99.90;;;;;;4955281;28;20105;-68
2023/07/15 11:55:09;;;;;;;2.80;1.25;;;26.00;99.90;;;;;;4991626;28;20078;-68
2023/07/15 11:57:47;;;;;;;2.03;1.40;;;26.00;99.90;;;;;;4991617;28;20141;-70
2023/07/15 12:00:33;;;;;;;1.67;1.15;;;26.20;99.90;;;;;;4958746;28;20047;-69
2023/07/15 12:03:05;;;;;;;2.53;1.75;;;26.10;99.90;;;;;;4956087;28;20065;-69
2023/07/15 12:05:31;;;;;;;2.10;1.10;;;26.40;99.90;;;;;;4940120;29;20050;-69
2023/07/15 12:07:57;;;;;;;5.65;1.48;;;26.40;99.90;;;;;;4924144;29;20039;-69
2023/07/15 12:10:23;;;;;;;5.00;1.70;;;26.40;99.90;;;;;;4939318;29;20407;-69
2023/07/15 12:12:48;;;;;;;2.78;1.58;;;26.30;99.90;;;;;;4939724;29;20035;-68
2023/07/15 12:15:15;;;;;;;2.15;1.50;;;26.40;99.90;;;;;;4938855;29;20412;-70
2023/07/15 12:17:42;;;;;;;2.38;1.67;;;26.50;99.90;;;;;;4956525;29;20051;-69
2023/07/15 12:20:09;;;;;;;2.65;1.58;;;26.60;99.90;;;;;;4938966;29;20058;-69
2023/07/15 12:22:34;;;;;;;2.53;1.55;;;26.60;99.90;;;;;;4940050;29;20039;-70
2023/07/15 12:25:00;;;;;;;2.92;1.50;;;26.30;99.90;;;;;;4940478;29;20287;-70
2023/07/15 12:27:26;;;;;;;5.35;1.77;;;26.40;99.90;;;;;;4956957;29;20556;-70
2023/07/15 12:29:51;;;;;;;2.45;1.38;;;26.20;99.90;;;;;;4939547;28;20031;-70
2023/07/15 12:32:17;;;;;;;6.22;1.55;;;26.10;99.90;;;;;;4956639;29;20145;-69
2023/07/15 12:34:43;;;;;;;5.43;1.48;;;25.80;99.90;;;;;;4957161;29;20046;-70
2023/07/15 12:37:08;;;;;;;4.60;1.65;;;26.50;99.90;;;;;;4946256;28;20034;-70
2023/07/15 12:39:34;;;;;;;15.43;1.85;;;26.20;99.90;;;;;;4976105;28;20046;-69
2023/07/15 12:41:59;;;;;;;4.25;1.90;;;26.10;99.90;;;;;;4957675;28;20493;-70
2023/07/15 12:44:25;;;;;;;3.42;1.95;;;25.60;99.90;;;;;;4976077;28;20043;-70
2023/07/15 12:46:51;;;;;;;3.60;1.73;;;25.60;99.90;;;;;;4943296;28;20128;-69
2023/07/15 12:49:16;;;;;;;4.07;2.33;;;25.70;99.90;;;;;;4957826;28;20511;-69
2023/07/15 12:51:42;;;;;;;3.53;1.90;;;25.50;99.90;;;;;;4957572;28;20038;-69
2023/07/15 12:54:08;;;;;;;3.58;2.08;;;25.70;99.90;;;;;;4958596;28;20070;-70
2023/07/15 12:56:34;;;;;;;4.43;1.60;;;25.90;99.90;;;;;;4957778;28;20392;-69
2023/07/15 12:58:59;;;;;;;2.80;1.85;;;26.20;99.90;;;;;;4942852;28;20046;-70
2023/07/15 13:01:25;;;;;;;3.95;1.73;;;26.80;99.90;;;;;;4956787;28;20115;-69
2023/07/15 13:03:51;;;;;;;2.83;1.95;;;27.20;99.90;;;;;;4957870;28;20565;-70